Time;durP1;ratioP1;P1;durP2;ratioP2;P2;SDS_P1;SDS_P2;PMS_P1;PMS_P2;Temp;Humidity;BMP_temperature;BMP_pressure;BME280_temperature;BME280_humidity;BME280_pressure;Samples;Min_cycle;Max_cycle;Signal;HPM_P1;HPM_P2
2022/03/27 00:00:22;;;;;;;33.80;12.88;;;;;;;8.28;39.83;95876.84;5091790;28;20024;-78
2022/03/27 00:02:48;;;;;;;35.20;13.88;;;;;;;8.26;39.40;95868.47;5077007;28;20024;-79
2022/03/27 00:05:13;;;;;;;34.05;12.77;;;;;;;8.23;39.87;95874.03;5055932;28;20402;-79
2022/03/27 00:07:39;;;;;;;28.02;12.43;;;;;;;8.16;39.61;95870.63;5094162;28;20668;-78
2022/03/27 00:10:05;;;;;;;29.30;13.93;;;;;;;8.11;40.06;95867.78;5058985;28;20402;-79
2022/03/27 00:12:31;;;;;;;34.95;14.35;;;;;;;8.13;39.77;95868.38;5060257;28;20032;-79
2022/03/27 00:14:56;;;;;;;35.92;13.80;;;;;;;8.16;39.60;95862.84;5078855;28;20352;-78
2022/03/27 00:17:22;;;;;;;33.63;13.20;;;;;;;8.23;39.37;95862.88;5097433;28;20039;-78
2022/03/27 00:19:48;;;;;;;26.98;11.90;;;;;;;8.28;39.70;95863.09;5062054;28;20480;-78
2022/03/27 00:22:14;;;;;;;34.45;14.20;;;;;;;8.26;40.02;95863.28;5078293;28;20065;-78
2022/03/27 00:24:40;;;;;;;32.45;14.27;;;;;;;8.30;39.93;95859.34;5078020;28;20066;-78
2022/03/27 00:27:05;;;;;;;47.70;16.25;;;;;;;8.35;40.11;95857.00;5045409;28;20031;-78
2022/03/27 00:29:31;;;;;;;37.75;13.60;;;;;;;8.38;39.53;95860.97;5077663;28;20031;-78
2022/03/27 00:31:56;;;;;;;35.97;14.23;;;;;;;8.42;39.44;95857.00;5094560;28;20112;-78
2022/03/27 00:34:22;;;;;;;26.35;13.77;;;;;;;8.41;39.39;95856.22;5060536;28;20028;-78
2022/03/27 00:36:48;;;;;;;38.03;14.38;;;;;;;8.47;39.57;95849.47;5074095;28;20040;-78
2022/03/27 00:39:14;;;;;;;55.55;19.70;;;;;;;8.47;39.28;95848.69;5076826;28;20034;-78
2022/03/27 00:41:39;;;;;;;47.35;19.48;;;;;;;8.47;39.74;95852.06;5059505;28;20492;-77
2022/03/27 00:44:05;;;;;;;37.55;14.38;;;;;;;8.43;39.20;95837.88;5075859;28;20494;-78
2022/03/27 00:46:31;;;;;;;36.55;17.80;;;;;;;8.45;39.37;95835.09;5080613;28;20210;-78
2022/03/27 00:48:57;;;;;;;69.50;27.92;;;;;;;8.43;40.57;95832.69;5077739;28;20093;-78
2022/03/27 00:51:22;;;;;;;61.90;27.80;;;;;;;8.42;40.68;95834.47;5076767;28;20032;-78
2022/03/27 00:53:48;;;;;;;37.10;15.43;;;;;;;8.39;39.39;95827.09;5076720;28;20043;-78
2022/03/27 00:56:13;;;;;;;39.25;14.88;;;;;;;8.29;38.19;95834.38;5077246;28;20038;-78
2022/03/27 00:58:39;;;;;;;40.28;15.02;;;;;;;8.25;38.84;95827.19;5060401;28;20541;-78
2022/03/27 01:03:34;;;;;;;49.25;13.10;;;;;;;8.07;38.20;95828.50;5101958;22;20051;-78
2022/03/27 01:06:00;;;;;;;30.17;13.15;;;;;;;7.94;38.82;95831.00;5092272;28;20140;-78
2022/03/27 01:11:16;;;;;;;46.72;13.20;;;;;;;7.61;38.97;95830.78;5091833;28;20043;-78
2022/03/27 01:13:55;;;;;;;39.53;12.52;;;;;;;7.59;38.75;95824.19;5091546;28;20032;-78
2022/03/27 01:16:37;;;;;;;39.42;14.38;;;;;;;7.49;39.02;95819.38;5077176;28;20039;-78
2022/03/27 01:19:02;;;;;;;51.08;12.63;;;;;;;7.51;38.77;95819.97;5099119;28;20116;-78
2022/03/27 01:21:28;;;;;;;26.77;11.60;;;;;;;7.50;39.32;95826.16;5081953;28;20043;-78
2022/03/27 01:23:54;;;;;;;36.08;13.73;;;;;;;7.52;39.31;95821.56;5076359;28;20066;-78
2022/03/27 01:26:23;;;;;;;38.60;13.00;;;;;;;7.55;39.21;95828.97;5056003;28;20085;-77
2022/03/27 01:28:50;;;;;;;35.53;13.70;;;;;;;7.55;38.78;95821.19;5076062;28;20043;-78
2022/03/27 01:31:16;;;;;;;39.80;13.40;;;;;;;7.53;39.39;95820.59;5099304;28;20956;-78
2022/03/27 01:33:42;;;;;;;28.35;13.65;;;;;;;7.50;39.40;95818.38;5077006;28;20037;-78
2022/03/27 01:36:07;;;;;;;45.63;14.15;;;;;;;7.45;39.68;95828.47;5093627;28;20032;-78
2022/03/27 01:38:32;;;;;;;31.92;11.60;;;;;;;7.40;39.21;95821.28;5074972;28;20032;-77
2022/03/27 01:40:58;;;;;;;36.78;13.25;;;;;;;7.31;39.47;95821.59;5074152;28;20024;-77
2022/03/27 01:43:23;;;;;;;26.10;11.57;;;;;;;7.23;39.45;95825.13;5092593;28;20411;-78
2022/03/27 01:45:49;;;;;;;30.52;11.23;;;;;;;7.15;39.67;95835.56;5073454;28;20039;-77
2022/03/27 01:48:15;;;;;;;36.92;13.73;;;;;;;7.04;39.89;95828.31;5064770;28;20419;-77
2022/03/27 01:50:40;;;;;;;47.67;12.80;;;;;;;7.00;39.49;95825.31;5073070;28;20275;-77
2022/03/27 01:53:06;;;;;;;39.58;13.32;;;;;;;6.96;40.01;95821.47;5056703;28;20032;-77
2022/03/27 01:55:31;;;;;;;36.40;13.00;;;;;;;6.88;40.65;95819.81;5056317;28;20050;-77
2022/03/27 01:57:57;;;;;;;43.65;12.98;;;;;;;6.90;40.59;95828.19;5072834;28;20453;-77
2022/03/27 02:00:22;;;;;;;39.38;13.88;;;;;;;6.96;40.49;95818.09;5090735;28;20028;-77
2022/03/27 02:02:47;;;;;;;33.05;13.43;;;;;;;6.96;41.08;95828.44;5094448;22;20109;-77
2022/03/27 02:05:13;;;;;;;36.30;13.75;;;;;;;6.98;41.25;95829.84;5090803;28;20044;-77
2022/03/27 02:07:42;;;;;;;26.13;13.05;;;;;;;6.93;40.88;95829.59;5091063;28;20081;-77
2022/03/27 02:10:08;;;;;;;34.38;13.05;;;;;;;7.00;40.25;95830.50;5072162;28;20136;-77
2022/03/27 02:12:34;;;;;;;33.53;13.48;;;;;;;7.05;40.38;95833.31;5065799;28;20509;-78
2022/03/27 02:15:00;;;;;;;37.38;12.25;;;;;;;7.04;40.53;95826.53;5072420;28;20438;-77
2022/03/27 02:17:26;;;;;;;32.90;14.40;;;;;;;7.07;40.67;95821.00;5090904;28;20028;-77
2022/03/27 02:19:51;;;;;;;45.15;16.83;;;;;;;7.13;41.33;95829.78;5055359;28;20085;-77
2022/03/27 02:22:17;;;;;;;35.58;14.25;;;;;;;7.09;40.81;95823.38;5088541;28;20028;-77
2022/03/27 02:24:42;;;;;;;51.65;16.60;;;;;;;7.09;41.29;95829.38;5055301;28;20085;-77
2022/03/27 02:27:08;;;;;;;29.40;14.95;;;;;;;7.00;41.04;95824.50;5072285;28;20028;-78
2022/03/27 02:29:33;;;;;;;60.15;21.13;;;;;;;6.99;42.25;95839.19;5071908;28;20032;-77
2022/03/27 02:31:58;;;;;;;59.45;21.27;;;;;;;6.95;42.33;95837.97;5072419;28;20477;-78
2022/03/27 02:34:24;;;;;;;66.47;24.13;;;;;;;6.93;42.38;95842.53;5089467;28;20050;-78
2022/03/27 02:36:49;;;;;;;69.57;27.45;;;;;;;6.89;42.63;95834.34;5072786;28;20510;-77
2022/03/27 02:39:15;;;;;;;141.10;67.05;;;;;;;6.86;42.90;95845.06;5057561;28;20587;-78
2022/03/27 02:41:40;;;;;;;142.35;69.68;;;;;;;6.79;42.52;95840.78;5054153;28;20036;-77
2022/03/27 02:44:07;;;;;;;301.52;148.50;;;;;;;6.75;43.09;95842.13;5073485;28;20054;-77
2022/03/27 02:46:33;;;;;;;298.88;150.75;;;;;;;6.69;43.24;95848.84;5092350;28;20085;-77
2022/03/27 02:48:58;;;;;;;234.70;119.60;;;;;;;6.67;43.61;95844.81;5074225;28;20039;-77
2022/03/27 02:51:24;;;;;;;230.55;113.05;;;;;;;6.64;42.62;95846.00;5090505;28;20028;-77
2022/03/27 02:53:49;;;;;;;190.93;96.32;;;;;;;6.62;42.68;95853.13;5072390;28;20032;-78
2022/03/27 02:56:15;;;;;;;157.13;74.28;;;;;;;6.61;43.22;95860.06;5072290;28;20044;-77
2022/03/27 02:58:41;;;;;;;118.63;50.88;;;;;;;6.52;43.67;95858.59;5073882;28;20036;-77
2022/03/27 03:01:07;;;;;;;97.72;42.92;;;;;;;6.51;43.78;95856.19;5073101;28;20016;-77
2022/03/27 03:03:32;;;;;;;88.22;39.17;;;;;;;6.48;43.38;95857.34;5057268;28;20060;-77
2022/03/27 03:06:15;;;;;;;91.05;37.72;;;;;;;6.43;43.72;95858.88;5094826;28;20127;-77
2022/03/27 03:08:41;;;;;;;79.45;32.67;;;;;;;6.38;43.33;95856.81;5077245;28;20028;-77
2022/03/27 03:11:06;;;;;;;69.47;28.65;;;;;;;6.32;43.93;95862.69;5091517;28;20031;-77
2022/03/27 03:13:32;;;;;;;70.18;30.60;;;;;;;6.32;43.43;95862.69;5094473;23;20040;-78
2022/03/27 03:15:58;;;;;;;68.20;28.65;;;;;;;6.29;43.80;95857.88;5082978;28;20032;-78
2022/03/27 03:18:24;;;;;;;72.07;28.95;;;;;;;6.22;44.06;95860.41;5069033;28;20120;-79
2022/03/27 03:20:50;;;;;;;59.53;28.35;;;;;;;6.17;44.26;95862.69;5061036;28;20040;-78
2022/03/27 03:23:16;;;;;;;72.50;34.15;;;;;;;6.26;43.95;95855.66;5048592;28;20090;-78
2022/03/27 03:25:42;;;;;;;70.80;32.08;;;;;;;6.28;44.23;95857.09;5058621;28;20032;-78
2022/03/27 03:28:08;;;;;;;72.88;32.17;;;;;;;6.19;44.22;95860.75;5053486;28;20044;-79
2022/03/27 03:30:34;;;;;;;75.18;37.83;;;;;;;6.18;44.25;95854.00;5054585;28;20039;-78
2022/03/27 03:32:59;;;;;;;83.18;36.88;;;;;;;6.11;44.95;95862.63;5030780;28;20036;-78
2022/03/27 03:35:25;;;;;;;81.10;37.30;;;;;;;6.09;45.02;95856.84;5062838;28;20384;-78
2022/03/27 03:37:50;;;;;;;74.32;34.50;;;;;;;6.13;44.78;95863.25;5073781;28;20032;-78
2022/03/27 03:40:16;;;;;;;75.75;29.23;;;;;;;6.14;44.78;95864.84;5075088;28;20052;-78
2022/03/27 03:42:41;;;;;;;68.55;26.60;;;;;;;6.13;44.17;95863.25;5061353;28;20043;-78
2022/03/27 03:45:07;;;;;;;72.85;30.38;;;;;;;5.98;44.50;95866.59;5065396;28;20036;-78
2022/03/27 03:47:32;;;;;;;80.40;30.92;;;;;;;5.92;44.76;95857.00;5061087;28;20508;-78
2022/03/27 03:49:58;;;;;;;91.25;34.92;;;;;;;5.89;45.00;95872.03;5058899;28;20480;-78
2022/03/27 03:52:23;;;;;;;79.47;33.42;;;;;;;5.86;45.56;95870.59;5053285;28;20033;-78
2022/03/27 03:54:49;;;;;;;73.13;34.00;;;;;;;5.94;44.75;95873.13;5051719;28;20088;-78
2022/03/27 03:57:14;;;;;;;66.63;30.38;;;;;;;5.92;45.26;95877.66;5044492;28;20032;-78
2022/03/27 03:59:41;;;;;;;67.45;29.20;;;;;;;5.82;45.58;95871.91;5043223;28;20036;-78
2022/03/27 04:02:07;;;;;;;56.83;23.67;;;;;;;5.79;45.97;95867.09;5054932;28;20032;-78
2022/03/27 04:04:33;;;;;;;69.97;28.08;;;;;;;5.73;45.18;95873.78;5043676;28;20044;-78
2022/03/27 04:06:59;;;;;;;65.90;31.60;;;;;;;5.73;45.93;95878.13;5049458;28;20041;-77
2022/03/27 04:09:25;;;;;;;71.07;32.55;;;;;;;5.64;45.80;95884.34;5060070;28;20500;-78
2022/03/27 04:11:50;;;;;;;76.18;33.25;;;;;;;5.59;45.57;95894.38;5067973;28;20031;-78
2022/03/27 04:14:16;;;;;;;102.32;36.97;;;;;;;5.56;46.30;95892.16;5075166;28;20028;-78
2022/03/27 04:16:42;;;;;;;81.80;36.95;;;;;;;5.56;45.77;95898.13;5064225;28;20033;-78
2022/03/27 04:19:07;;;;;;;85.75;36.65;;;;;;;5.56;46.40;95899.91;5036420;28;20029;-78
2022/03/27 04:21:33;;;;;;;84.15;36.05;;;;;;;5.60;45.74;95899.38;5050389;28;20082;-78
2022/03/27 04:23:58;;;;;;;70.25;33.13;;;;;;;5.63;46.04;95898.22;5052361;28;20043;-78
2022/03/27 04:26:23;;;;;;;76.43;31.60;;;;;;;5.65;45.41;95901.41;5095237;22;20132;-78
2022/03/27 04:31:15;;;;;;;101.22;45.42;;;;;;;5.73;45.83;95898.78;5108890;22;20044;-78
2022/03/27 04:33:40;;;;;;;112.07;49.03;;;;;;;5.68;45.86;95911.38;5091052;28;20047;-78
2022/03/27 04:36:06;;;;;;;116.13;53.30;;;;;;;5.73;46.51;95909.09;5072187;28;20088;-78
2022/03/27 04:38:31;;;;;;;107.25;48.80;;;;;;;5.83;46.17;95914.00;5058748;28;20128;-78
2022/03/27 04:40:57;;;;;;;184.63;88.38;;;;;;;6.02;45.67;95916.13;5075636;28;20457;-78
2022/03/27 04:43:22;;;;;;;214.60;105.85;;;;;;;6.37;44.65;95922.41;5071361;28;20043;-78
2022/03/27 04:45:49;;;;;;;166.50;83.10;;;;;;;6.61;44.71;95916.94;5071254;28;20043;-78
2022/03/27 04:48:14;;;;;;;119.95;53.97;;;;;;;7.17;42.94;95922.38;5078727;28;20483;-78
2022/03/27 04:50:40;;;;;;;61.70;30.58;;;;;;;7.79;41.69;95918.34;5075953;28;20078;-78
2022/03/27 04:53:05;;;;;;;41.30;18.52;;;;;;;8.51;39.63;95922.47;5054430;28;20072;-78
2022/03/27 04:55:31;;;;;;;37.03;15.32;;;;;;;9.48;38.59;95925.59;5090356;28;20486;-78
2022/03/27 04:57:56;;;;;;;80.57;34.63;;;;;;;10.58;36.69;95926.81;5072289;28;20051;-78
2022/03/27 05:00:22;;;;;;;96.57;38.97;;;;;;;11.60;33.91;95930.34;5056435;28;20039;-78
2022/03/27 05:02:47;;;;;;;146.30;68.50;;;;;;;12.58;32.50;95933.16;5076731;28;20051;-79
2022/03/27 05:05:13;;;;;;;154.10;72.30;;;;;;;13.50;30.74;95928.66;5092460;28;20427;-79
2022/03/27 05:07:39;;;;;;;138.05;61.97;;;;;;;14.45;28.94;95930.44;5059310;28;20036;-79
2022/03/27 05:10:05;;;;;;;141.57;65.15;;;;;;;15.24;28.34;95921.06;5059711;28;20067;-78
2022/03/27 05:12:30;;;;;;;115.65;55.65;;;;;;;16.13;26.92;95924.75;5075253;28;20073;-78
2022/03/27 05:14:56;;;;;;;98.25;46.55;;;;;;;16.95;25.63;95928.53;5058951;28;20031;-78
2022/03/27 05:17:21;;;;;;;70.82;32.28;;;;;;;18.06;23.66;95930.72;5076140;28;20028;-79
2022/03/27 05:19:47;;;;;;;70.32;30.10;;;;;;;18.71;23.09;95926.97;5076146;28;20058;-79
2022/03/27 05:22:13;;;;;;;70.68;30.65;;;;;;;19.48;21.97;95927.03;5055922;28;20028;-77
2022/03/27 05:24:38;;;;;;;86.18;39.70;;;;;;;20.08;21.79;95928.19;5057486;28;20028;-78
2022/03/27 05:27:04;;;;;;;49.03;25.35;;;;;;;20.80;20.63;95926.28;5060703;28;20065;-79
2022/03/27 05:29:29;;;;;;;44.67;21.83;;;;;;;21.41;20.10;95926.06;5060542;28;20032;-79
2022/03/27 05:31:57;;;;;;;55.60;21.90;;;;;;;21.68;19.72;95922.22;5094068;28;20016;-78
2022/03/27 05:34:22;;;;;;;32.50;14.85;;;;;;;21.39;19.64;95922.91;5058522;28;20096;-78
2022/03/27 05:36:48;;;;;;;32.55;16.33;;;;;;;21.05;19.84;95932.56;5059571;28;20028;-78
2022/03/27 05:39:13;;;;;;;33.10;17.00;;;;;;;20.87;20.43;95928.66;5094270;28;20020;-77
2022/03/27 05:41:39;;;;;;;38.88;18.05;;;;;;;20.81;20.28;95937.63;5093291;28;20039;-79
2022/03/27 05:44:05;;;;;;;29.02;16.73;;;;;;;20.47;20.13;95934.78;5068361;28;20491;-79
2022/03/27 05:46:30;;;;;;;40.00;16.95;;;;;;;20.15;20.55;95937.69;5095142;28;20036;-79
2022/03/27 05:48:56;;;;;;;35.33;14.73;;;;;;;19.89;20.77;95926.34;5083272;28;20028;-78
2022/03/27 05:51:21;;;;;;;35.33;14.77;;;;;;;19.74;21.07;95933.19;5093744;28;20036;-78
2022/03/27 05:53:47;;;;;;;30.60;13.82;;;;;;;19.45;21.23;95932.03;5096140;28;20028;-78
2022/03/27 05:56:12;;;;;;;36.15;14.32;;;;;;;19.16;22.04;95943.00;5085855;28;20123;-79
2022/03/27 05:58:40;;;;;;;31.63;13.60;;;;;;;19.15;22.15;95943.28;5098410;28;20479;-79
2022/03/27 06:01:06;;;;;;;35.30;15.02;;;;;;;19.07;22.21;95941.16;5094529;28;20028;-78
2022/03/27 06:03:31;;;;;;;37.72;14.98;;;;;;;18.84;22.34;95945.75;5054889;28;20048;-79
2022/03/27 06:05:57;;;;;;;28.98;15.00;;;;;;;18.68;22.92;95948.56;5072929;28;20028;-79
2022/03/27 06:10:52;;;;;;;31.73;14.57;;;;;;;18.58;22.76;95952.72;5402209;22;20048;-79
2022/03/27 06:13:19;;;;;;;34.47;16.05;;;;;;;18.52;22.73;95950.28;5090417;28;20024;-77
2022/03/27 06:15:45;;;;;;;41.60;16.13;;;;;;;18.50;22.73;95955.00;5085274;28;20094;-79
2022/03/27 06:18:11;;;;;;;34.15;16.45;;;;;;;18.51;23.04;95949.50;5033843;28;20052;-80
2022/03/27 06:20:37;;;;;;;49.22;16.33;;;;;;;18.36;22.75;95952.03;5067437;28;20032;-79
2022/03/27 06:23:03;;;;;;;44.08;16.52;;;;;;;18.28;22.90;95953.28;5050446;28;20061;-79
2022/03/27 06:25:29;;;;;;;32.70;15.85;;;;;;;18.20;22.95;95953.75;5085532;28;20035;-79
2022/03/27 06:27:55;;;;;;;42.55;16.23;;;;;;;18.16;23.44;95947.41;5049255;28;20044;-78
2022/03/27 06:30:22;;;;;;;34.00;15.93;;;;;;;18.35;23.63;95945.16;5067229;28;20043;-79
2022/03/27 06:32:47;;;;;;;54.10;17.27;;;;;;;18.55;23.35;95950.59;5045917;28;20020;-79
2022/03/27 06:35:14;;;;;;;38.60;16.58;;;;;;;18.75;22.67;95943.88;5080378;23;20039;-79
2022/03/27 06:37:39;;;;;;;39.88;16.60;;;;;;;18.78;22.74;95940.75;5116569;28;20089;-79
2022/03/27 06:40:06;;;;;;;45.00;16.80;;;;;;;18.99;23.02;95950.31;5078926;28;20501;-78
2022/03/27 06:42:31;;;;;;;41.67;15.45;;;;;;;19.07;22.57;95949.06;5101771;28;20053;-78
2022/03/27 06:44:57;;;;;;;37.90;15.65;;;;;;;19.04;22.73;95945.09;5077980;28;20066;-78
2022/03/27 06:47:23;;;;;;;36.92;16.15;;;;;;;19.05;22.88;95949.31;5096987;28;20036;-79
2022/03/27 06:49:49;;;;;;;42.05;17.58;;;;;;;19.10;22.14;95949.31;5103301;28;20028;-78
2022/03/27 06:52:16;;;;;;;39.10;17.35;;;;;;;19.00;22.52;95957.19;5119338;28;20031;-83
2022/03/27 06:54:42;;;;;;;28.48;18.00;;;;;;;18.87;22.78;95968.19;5101090;28;20043;-79
2022/03/27 06:57:07;;;;;;;35.40;17.58;;;;;;;18.81;23.24;95964.72;5123144;28;20036;-80
2022/03/27 07:05:02;;;;;;;39.47;16.60;;;;;;;18.77;23.38;95957.59;5096072;28;20058;-79
2022/03/27 07:07:29;;;;;;;50.00;19.17;;;;;;;18.86;23.24;95950.78;5090897;28;20046;-81
2022/03/27 07:09:54;;;;;;;34.47;17.20;;;;;;;18.89;23.24;95960.84;5100864;28;20468;-80
2022/03/27 07:12:20;;;;;;;46.25;19.33;;;;;;;18.87;23.39;95962.91;5117313;28;20084;-80
2022/03/27 07:14:46;;;;;;;49.33;19.25;;;;;;;18.87;23.78;95955.00;5113162;28;20024;-80
2022/03/27 07:17:15;;;;;;;34.97;17.88;;;;;;;18.95;23.86;95954.53;5095325;28;20035;-80
2022/03/27 07:19:41;;;;;;;40.38;19.10;;;;;;;19.03;23.35;95951.38;5087593;28;20046;-78
2022/03/27 07:22:06;;;;;;;33.78;17.23;;;;;;;19.02;23.36;95959.56;5116125;28;20028;-78
2022/03/27 07:24:32;;;;;;;31.00;17.13;;;;;;;18.96;23.19;95953.47;5095587;28;20446;-78
2022/03/27 07:26:57;;;;;;;47.33;18.90;;;;;;;18.92;23.14;95962.94;5110040;28;20209;-76
2022/03/27 07:29:23;;;;;;;41.30;18.10;;;;;;;18.83;23.77;95956.56;5110405;28;20104;-78
2022/03/27 07:31:49;;;;;;;45.13;17.17;;;;;;;18.89;23.75;95951.09;5076383;28;20039;-78
2022/03/27 07:34:16;;;;;;;57.17;16.92;;;;;;;19.03;24.09;95950.59;5076647;28;20043;-75
2022/03/27 07:36:42;;;;;;;34.58;14.30;;;;;;;19.17;23.50;95949.88;5094050;28;20024;-77
2022/03/27 07:39:09;;;;;;;29.83;14.25;;;;;;;19.30;23.16;95942.53;5107730;28;20061;-78
2022/03/27 07:41:35;;;;;;;31.60;13.02;;;;;;;19.32;23.26;95937.78;5092836;28;20555;-77
2022/03/27 07:44:00;;;;;;;32.00;12.73;;;;;;;19.25;23.21;95938.03;5091279;28;20039;-78
2022/03/27 07:46:26;;;;;;;31.98;12.32;;;;;;;19.24;23.77;95930.41;5095493;28;20073;-81
2022/03/27 07:48:52;;;;;;;24.75;11.88;;;;;;;19.26;23.78;95928.28;5081633;28;20038;-81
2022/03/27 07:51:17;;;;;;;22.42;10.82;;;;;;;19.28;23.95;95934.09;5078420;28;20035;-78
2022/03/27 07:53:43;;;;;;;32.00;12.30;;;;;;;19.28;24.23;95931.47;5117426;28;20043;-78
2022/03/27 07:56:08;;;;;;;32.28;12.25;;;;;;;19.26;23.96;95930.94;5109228;28;20036;-79
2022/03/27 07:58:34;;;;;;;28.55;12.43;;;;;;;19.11;23.85;95935.09;5111295;28;20077;-80
2022/03/27 08:01:00;;;;;;;24.30;10.88;;;;;;;19.10;25.36;95919.53;5091654;28;20036;-76
2022/03/27 08:03:26;;;;;;;30.35;11.98;;;;;;;19.15;24.72;95927.44;5109979;28;20084;-77
2022/03/27 08:05:51;;;;;;;29.67;11.70;;;;;;;19.17;23.06;95928.78;5075147;28;20058;-77
2022/03/27 08:08:17;;;;;;;36.15;11.68;;;;;;;19.29;23.95;95928.56;5109800;28;20579;-75
2022/03/27 08:10:43;;;;;;;25.00;11.48;;;;;;;19.21;22.45;95921.16;5109141;28;20063;-75
2022/03/27 08:13:09;;;;;;;35.20;12.38;;;;;;;18.95;21.79;95916.84;5088361;28;20046;-75
2022/03/27 08:15:34;;;;;;;25.92;11.95;;;;;;;18.84;21.96;95921.25;5091780;28;20099;-77
2022/03/27 08:18:00;;;;;;;24.00;12.38;;;;;;;18.76;22.45;95922.56;5092547;28;20039;-80
2022/03/27 08:20:27;;;;;;;21.38;12.90;;;;;;;18.68;22.78;95923.03;5090621;28;20024;-77
2022/03/27 08:22:53;;;;;;;29.05;12.55;;;;;;;18.62;22.18;95917.97;5092156;28;20111;-78
2022/03/27 08:28:04;;;;;;;25.75;11.25;;;;;;;18.73;22.88;95914.38;5079331;28;20061;-75
2022/03/27 08:30:29;;;;;;;22.98;11.75;;;;;;;18.77;22.76;95910.16;5106101;28;20046;-77
2022/03/27 08:32:55;;;;;;;38.67;13.75;;;;;;;18.75;22.67;95901.72;5075306;28;20034;-77
2022/03/27 08:35:20;;;;;;;28.10;11.95;;;;;;;18.64;22.34;95895.59;5075690;28;20023;-77
2022/03/27 08:37:46;;;;;;;33.60;13.55;;;;;;;18.62;22.77;95904.78;5097519;28;20525;-77
2022/03/27 08:40:11;;;;;;;49.42;15.50;;;;;;;18.54;23.06;95901.56;5111617;28;20495;-78
2022/03/27 08:42:37;;;;;;;37.28;15.57;;;;;;;18.44;22.69;95906.78;5078484;28;20527;-77
2022/03/27 08:45:04;;;;;;;32.97;13.18;;;;;;;18.33;23.51;95910.41;5079511;28;20082;-77
2022/03/27 08:47:33;;;;;;;41.25;17.73;;;;;;;18.27;23.19;95906.94;5102447;28;20034;-77
2022/03/27 08:50:32;;;;;;;32.35;14.23;;;;;;;18.21;22.95;95897.41;5063117;28;20078;-77
2022/03/27 08:52:58;;;;;;;39.17;17.85;;;;;;;18.16;23.04;95899.22;5093639;28;20047;-78
2022/03/27 08:55:46;;;;;;;65.53;16.75;;;;;;;18.09;22.20;95893.41;5097460;28;20564;-77
2022/03/27 08:58:12;;;;;;;27.10;15.90;;;;;;;18.11;23.02;95891.28;5094252;28;20096;-74
2022/03/27 09:00:38;;;;;;;30.48;15.60;;;;;;;18.04;23.19;95886.22;5093560;28;20035;-76
2022/03/27 09:03:05;;;;;;;45.83;17.92;;;;;;;17.95;23.26;95898.28;5060500;28;20627;-76
2022/03/27 09:05:33;;;;;;;36.33;15.68;;;;;;;17.91;23.06;95886.69;5093635;28;20105;-77
2022/03/27 09:07:58;;;;;;;34.08;16.25;;;;;;;17.84;23.16;95893.97;5093246;28;20036;-76
2022/03/27 09:10:25;;;;;;;35.05;14.63;;;;;;;17.73;23.10;95890.44;5093166;28;20518;-77
2022/03/27 09:12:51;;;;;;;31.67;16.42;;;;;;;17.63;23.46;95896.41;5077520;28;20107;-77
2022/03/27 09:15:19;;;;;;;41.10;18.13;;;;;;;17.79;23.29;95900.00;5093745;28;20092;-75
2022/03/27 09:17:59;;;;;;;33.65;15.68;;;;;;;17.85;23.01;95898.97;5078063;28;20039;-74
2022/03/27 09:20:42;;;;;;;34.67;16.52;;;;;;;17.75;23.07;95898.13;5085657;28;20434;-75
2022/03/27 09:23:19;;;;;;;43.95;19.00;;;;;;;17.85;23.08;95898.19;5112266;28;20031;-77
2022/03/27 09:25:57;;;;;;;35.92;15.60;;;;;;;17.96;22.58;95891.97;5093714;28;20032;-76
2022/03/27 09:28:27;;;;;;;39.65;19.17;;;;;;;17.98;22.53;95888.03;5110366;28;20448;-76
2022/03/27 09:30:53;;;;;;;32.50;16.25;;;;;;;17.92;22.35;95889.06;5076375;28;20059;-77
2022/03/27 09:33:46;;;;;;;35.20;16.73;;;;;;;17.82;22.52;95883.69;5078163;28;20067;-77
2022/03/27 09:36:13;;;;;;;37.30;17.63;;;;;;;17.74;22.39;95871.03;5094560;28;20567;-76
2022/03/27 09:38:39;;;;;;;40.80;15.80;;;;;;;17.71;22.29;95882.03;5093897;28;20042;-77
2022/03/27 09:41:07;;;;;;;36.22;15.95;;;;;;;17.76;22.53;95868.94;5078408;28;20032;-76
2022/03/27 09:43:33;;;;;;;35.88;16.55;;;;;;;17.71;22.18;95866.22;5078028;28;20062;-76
2022/03/27 09:46:01;;;;;;;43.70;15.68;;;;;;;17.62;22.30;95867.72;5093799;28;20055;-77
2022/03/27 09:48:27;;;;;;;34.38;14.20;;;;;;;17.69;22.50;95868.31;5094485;28;20062;-78
2022/03/27 09:50:54;;;;;;;53.20;15.98;;;;;;;17.69;21.80;95857.81;5061321;28;20023;-76
2022/03/27 09:53:25;;;;;;;37.67;14.05;;;;;;;17.69;21.65;95868.31;5076669;28;20467;-77
2022/03/27 09:55:59;;;;;;;50.67;15.43;;;;;;;17.65;22.07;95849.59;5111430;28;20036;-76
2022/03/27 09:58:44;;;;;;;39.40;14.70;;;;;;;17.57;21.86;95860.59;5111369;28;20118;-76
2022/03/27 10:01:14;;;;;;;29.80;13.80;;;;;;;17.62;22.28;95862.47;5062050;28;20122;-77
2022/03/27 10:04:01;;;;;;;22.48;13.30;;;;;;;17.58;21.98;95853.50;5111864;28;20035;-78
2022/03/27 10:06:27;;;;;;;30.38;12.73;;;;;;;17.61;21.24;95855.63;5072594;28;20036;-77
2022/03/27 10:08:52;;;;;;;33.90;13.55;;;;;;;17.60;21.17;95865.34;5076263;28;20043;-78
2022/03/27 10:11:21;;;;;;;22.25;12.60;;;;;;;17.69;21.31;95852.53;5111456;28;20035;-77
2022/03/27 10:13:46;;;;;;;29.95;12.25;;;;;;;17.77;20.95;95854.72;5094934;28;20067;-77
2022/03/27 10:16:12;;;;;;;27.60;13.02;;;;;;;17.79;20.45;95842.13;5078378;28;20059;-78
2022/03/27 10:18:37;;;;;;;28.70;11.90;;;;;;;17.81;19.85;95837.38;5093147;28;20380;-77
2022/03/27 10:21:03;;;;;;;25.27;10.75;;;;;;;17.88;20.79;95830.06;5090448;28;20038;-77
2022/03/27 10:23:28;;;;;;;25.77;11.63;;;;;;;17.92;21.66;95828.53;5093550;28;20036;-80
2022/03/27 10:25:55;;;;;;;29.02;11.85;;;;;;;17.94;19.74;95823.00;5097261;28;20114;-78
2022/03/27 10:28:21;;;;;;;21.45;11.18;;;;;;;17.91;20.28;95832.22;5092323;28;20046;-76
2022/03/27 10:30:50;;;;;;;26.95;11.45;;;;;;;18.00;20.32;95825.41;5074942;28;20032;-76
2022/03/27 10:33:16;;;;;;;24.13;12.05;;;;;;;18.11;20.45;95822.84;5076318;28;20160;-76
2022/03/27 10:35:57;;;;;;;20.10;12.27;;;;;;;18.15;20.40;95831.81;5092429;28;20028;-76
2022/03/27 10:38:25;;;;;;;28.02;14.13;;;;;;;18.26;19.79;95825.59;5110114;28;20578;-76
2022/03/27 10:41:05;;;;;;;30.10;13.52;;;;;;;18.30;20.08;95818.75;5107418;28;20155;-76
2022/03/27 10:44:00;;;;;;;19.35;10.82;;;;;;;18.36;19.69;95825.63;5109059;28;20042;-75
2022/03/27 10:46:27;;;;;;;22.98;10.85;;;;;;;18.32;19.58;95816.66;5101288;28;20054;-76
2022/03/27 10:48:53;;;;;;;18.45;9.57;;;;;;;18.34;20.34;95811.91;5077555;28;20031;-77
2022/03/27 10:51:25;;;;;;;23.98;10.45;;;;;;;18.36;19.33;95804.56;5111929;28;20036;-80
2022/03/27 10:54:19;;;;;;;22.83;12.27;;;;;;;18.38;19.01;95764.78;5110440;28;20453;-78
2022/03/27 10:56:50;;;;;;;32.40;10.35;;;;;;;18.23;19.27;95810.31;5101164;28;20071;-76
2022/03/27 10:59:20;;;;;;;21.73;10.32;;;;;;;18.23;19.29;95807.66;5076874;28;20028;-76
2022/03/27 11:01:50;;;;;;;23.35;10.35;;;;;;;18.30;19.00;95784.53;5109473;28;20036;-76
2022/03/27 11:04:21;;;;;;;19.30;10.07;;;;;;;18.29;18.52;95794.25;5108362;28;20027;-76
2022/03/27 11:06:50;;;;;;;27.15;10.73;;;;;;;18.29;19.06;95782.94;5108600;28;20963;-77
2022/03/27 11:09:38;;;;;;;29.13;11.68;;;;;;;18.21;19.38;95786.84;5095764;28;20137;-78
2022/03/27 11:12:08;;;;;;;23.40;11.05;;;;;;;18.15;19.26;95793.13;5076355;28;20608;-79
2022/03/27 11:14:52;;;;;;;22.83;11.75;;;;;;;18.13;18.61;95774.16;5094089;28;20032;-78
2022/03/27 11:17:36;;;;;;;24.27;11.60;;;;;;;18.08;18.93;95784.69;5112079;28;20475;-78
2022/03/27 11:20:26;;;;;;;20.85;11.20;;;;;;;18.07;19.48;95779.69;5097133;28;20047;-80
2022/03/27 11:22:56;;;;;;;25.05;12.80;;;;;;;18.02;19.67;95777.00;5087442;28;20043;-79
2022/03/27 11:25:37;;;;;;;30.73;15.68;;;;;;;18.07;19.95;95766.50;5095915;28;20054;-80
2022/03/27 11:28:02;;;;;;;38.63;16.88;;;;;;;18.08;19.89;95771.53;5118918;28;20043;-79
2022/03/27 11:30:27;;;;;;;37.83;18.35;;;;;;;18.20;19.74;95761.56;5117868;28;20475;-78
2022/03/27 11:33:14;;;;;;;36.28;16.58;;;;;;;18.20;18.95;95729.97;5097329;28;20053;-80
2022/03/27 11:35:41;;;;;;;41.83;18.85;;;;;;;18.13;19.34;95773.38;5093087;28;20031;-80
2022/03/27 11:38:24;;;;;;;39.67;15.88;;;;;;;18.19;19.33;95751.28;5109105;22;20161;-80